Ottumwa, IA

9:21 AM CDT on August 26, 2016 (GMT -0500)
Ottumwa | | Change Station

Elev 675 ft 41.00 °N, 92.44 °W | Updated 3 seconds ago

Mostly Cloudy
Mostly Cloudy
69.3 °F
Feels Like 69.3 °F
N
0.0
Wind Variable Wind from NNE
Gusts 0.0 mph

Today
High -- | Low -- °F
--% Chance of Precip.
Yesterday
High -- | Low -- °F
Precip. -- in
Pressure 30.17 in
Visibility 10.0 miles
Clouds Mostly Cloudy 7000 ft
Mostly Cloudy 11000 ft
Dew Point 57 °F
Humidity 65%
Rainfall 0.05 in
Snow Depth Not available.
6:31 AM 7:50 PM
Waning Crescent, 34% visible
METAR KOTM 261353Z AUTO 06004KT 10SM BKN070 BKN110 19/17 A3018 RMK AO2 SLP215 T01890172
Pressure 30.17 in
Visibility 10.0 miles
Clouds Mostly Cloudy 7000 ft
Mostly Cloudy 11000 ft
Dew Point 57 °F
Humidity 65%
Rainfall 0.05 in
Snow Depth Not available.
6:31 AM 7:50 PM
Waning Crescent, 34% visible
METAR KOTM 261353Z AUTO 06004KT 10SM BKN070 BKN110 19/17 A3018 RMK AO2 SLP215 T01890172

10-Day Weather Forecast

Almanac

Astronomy

Aug. 26, 2016 Rise Set
Actual Time
Civil Twilight
Nautical Twilight
Astronomical Twilight
Moon
Length of Visible Light
Length of Day
Tomorrow will be .
, % of the Moon is Illuminated

Today's Extremes

State Highs State Lows

Community

WunderPhotos

Upload Photos

1,935,089 photos uploaded!

WunderBlog® & News

Nearby

Air Quality

  Air Quality AQ Index Pollutant
Not available.

Snow Depth

Station Depth Elevation

Earthquake Activity

City Distance Mag. Time & Date
Minimum magnitude displayed is 2.5.

Coastal Water Temperatures

Place Temperature

Stations

Nearby Weather Stations

Station Location Temp. Windchill Dew Point Humidity Wind Precip. Elev Updated Type
                   

Watches & Warnings

There are currently no watches in effect.